sensor_id;sensor_type;location;lat;lon;timestamp;pressure;altitude;pressure_sealevel;temperature;humidity
39301;BME280;25019;42.626;23.380;2022-08-06T00:01:45;94273.13;;;19.59;63.51
39301;BME280;25019;42.626;23.380;2022-08-06T00:04:11;94268.97;;;19.53;63.57
39301;BME280;25019;42.626;23.380;2022-08-06T00:06:36;94290.09;;;19.60;63.72
39301;BME280;25019;42.626;23.380;2022-08-06T00:09:02;94277.03;;;19.53;64.11
39301;BME280;25019;42.626;23.380;2022-08-06T00:11:28;94279.81;;;19.62;64.03
39301;BME280;25019;42.626;23.380;2022-08-06T00:13:53;94281.41;;;19.63;64.12
39301;BME280;25019;42.626;23.380;2022-08-06T00:16:19;94283.91;;;19.59;64.23
39301;BME280;25019;42.626;23.380;2022-08-06T00:18:44;94261.44;;;19.41;64.44
39301;BME280;25019;42.626;23.380;2022-08-06T00:21:10;94272.31;;;19.50;64.64
39301;BME280;25019;42.626;23.380;2022-08-06T00:23:36;94281.69;;;19.61;64.84
39301;BME280;25019;42.626;23.380;2022-08-06T00:26:01;94250.69;;;19.41;64.65
39301;BME280;25019;42.626;23.380;2022-08-06T00:28:27;94270.88;;;19.53;64.68
39301;BME280;25019;42.626;23.380;2022-08-06T00:30:52;94279.06;;;19.48;64.83
39301;BME280;25019;42.626;23.380;2022-08-06T00:33:18;94278.72;;;19.40;65.52
39301;BME280;25019;42.626;23.380;2022-08-06T00:35:44;94277.56;;;19.33;65.91
39301;BME280;25019;42.626;23.380;2022-08-06T00:38:10;94245.88;;;19.07;66.18
39301;BME280;25019;42.626;23.380;2022-08-06T00:40:36;94284.25;;;19.35;66.33
39301;BME280;25019;42.626;23.380;2022-08-06T00:43:04;94289.13;;;19.33;66.46
39301;BME280;25019;42.626;23.380;2022-08-06T00:45:33;94273.88;;;19.28;66.56
39301;BME280;25019;42.626;23.380;2022-08-06T00:48:00;94257.78;;;19.14;66.68
39301;BME280;25019;42.626;23.380;2022-08-06T00:50:27;94202.22;;;18.73;66.81
39301;BME280;25019;42.626;23.380;2022-08-06T00:52:53;94285.69;;;19.19;67.12
39301;BME280;25019;42.626;23.380;2022-08-06T00:55:19;94281.72;;;19.16;67.24
39301;BME280;25019;42.626;23.380;2022-08-06T00:57:45;94239.41;;;18.71;67.71
39301;BME280;25019;42.626;23.380;2022-08-06T01:00:12;94274.41;;;18.94;67.93
39301;BME280;25019;42.626;23.380;2022-08-06T01:02:38;94275.22;;;18.94;68.32
39301;BME280;25019;42.626;23.380;2022-08-06T01:05:04;94196.88;;;18.36;68.70
39301;BME280;25019;42.626;23.380;2022-08-06T01:07:30;94262.88;;;18.79;68.75
39301;BME280;25019;42.626;23.380;2022-08-06T01:09:56;94227.19;;;18.51;68.83
39301;BME280;25019;42.626;23.380;2022-08-06T01:12:21;94283.88;;;18.91;68.71
39301;BME280;25019;42.626;23.380;2022-08-06T01:14:47;94223.41;;;18.52;68.82
39301;BME280;25019;42.626;23.380;2022-08-06T01:17:35;94249.34;;;18.70;68.63
39301;BME280;25019;42.626;23.380;2022-08-06T01:26:23;94278.09;;;18.98;68.73
39301;BME280;25019;42.626;23.380;2022-08-06T01:28:58;94276.50;;;18.97;68.92
39301;BME280;25019;42.626;23.380;2022-08-06T01:31:36;94247.53;;;18.80;68.79
39301;BME280;25019;42.626;23.380;2022-08-06T01:34:26;94253.41;;;18.82;68.60
39301;BME280;25019;42.626;23.380;2022-08-06T01:37:04;94274.91;;;18.96;68.75
39301;BME280;25019;42.626;23.380;2022-08-06T01:39:32;94239.41;;;18.71;68.98
39301;BME280;25019;42.626;23.380;2022-08-06T01:42:02;94276.00;;;18.95;68.78
39301;BME280;25019;42.626;23.380;2022-08-06T01:44:32;94227.97;;;18.65;69.14
39301;BME280;25019;42.626;23.380;2022-08-06T01:47:02;94216.44;;;18.51;69.00
39301;BME280;25019;42.626;23.380;2022-08-06T01:49:29;94235.94;;;18.56;69.52
39301;BME280;25019;42.626;23.380;2022-08-06T01:51:59;94233.06;;;18.53;69.84
39301;BME280;25019;42.626;23.380;2022-08-06T01:54:28;94261.91;;;18.75;70.00
39301;BME280;25019;42.626;23.380;2022-08-06T01:56:56;94261.91;;;18.75;70.00
39301;BME280;25019;42.626;23.380;2022-08-06T01:59:27;94186.94;;;18.23;70.29
39301;BME280;25019;42.626;23.380;2022-08-06T02:01:55;94263.28;;;18.72;70.35
39301;BME280;25019;42.626;23.380;2022-08-06T02:04:25;94263.00;;;18.74;70.13
39301;BME280;25019;42.626;23.380;2022-08-06T02:06:53;94257.63;;;18.74;70.18
39301;BME280;25019;42.626;23.380;2022-08-06T02:09:21;94260.31;;;18.74;69.91
39301;BME280;25019;42.626;23.380;2022-08-06T02:11:53;94263.00;;;18.74;70.27
39301;BME280;25019;42.626;23.380;2022-08-06T02:14:20;94180.63;;;18.27;70.46
39301;BME280;25019;42.626;23.380;2022-08-06T02:16:48;94245.38;;;18.68;70.73
39301;BME280;25019;42.626;23.380;2022-08-06T02:19:16;94212.88;;;18.41;71.03
39301;BME280;25019;42.626;23.380;2022-08-06T02:21:44;94186.75;;;18.19;71.38
39301;BME280;25019;42.626;23.380;2022-08-06T02:24:11;94243.50;;;18.54;71.81
39301;BME280;25019;42.626;23.380;2022-08-06T02:26:39;94248.59;;;18.56;72.01
39301;BME280;25019;42.626;23.380;2022-08-06T02:29:11;94143.38;;;17.84;71.51
39301;BME280;25019;42.626;23.380;2022-08-06T02:31:39;94239.84;;;18.50;71.84
39301;BME280;25019;42.626;23.380;2022-08-06T02:34:05;94239.44;;;18.57;72.17
39301;BME280;25019;42.626;23.380;2022-08-06T02:36:35;94241.81;;;18.59;71.66
39301;BME280;25019;42.626;23.380;2022-08-06T02:39:06;94245.50;;;18.63;71.11
39301;BME280;25019;42.626;23.380;2022-08-06T02:41:40;94193.97;;;18.33;71.11
39301;BME280;25019;42.626;23.380;2022-08-06T02:44:21;94181.56;;;18.23;70.65
39301;BME280;25019;42.626;23.380;2022-08-06T02:46:58;94225.31;;;18.51;71.03
39301;BME280;25019;42.626;23.380;2022-08-06T02:49:28;94246.59;;;18.62;71.03
39301;BME280;25019;42.626;23.380;2022-08-06T02:52:13;94203.66;;;18.20;71.46
39301;BME280;25019;42.626;23.380;2022-08-06T02:55:05;94219.19;;;18.23;71.64
39301;BME280;25019;42.626;23.380;2022-08-06T02:57:36;94246.13;;;18.32;72.40
39301;BME280;25019;42.626;23.380;2022-08-06T03:00:05;94250.84;;;18.26;72.72
39301;BME280;25019;42.626;23.380;2022-08-06T03:02:33;94253.34;;;18.22;73.07
39301;BME280;25019;42.626;23.380;2022-08-06T03:05:03;94263.00;;;18.23;73.16
39301;BME280;25019;42.626;23.380;2022-08-06T03:07:32;94263.78;;;18.24;73.18
39301;BME280;25019;42.626;23.380;2022-08-06T03:10:01;94268.97;;;18.20;73.60
39301;BME280;25019;42.626;23.380;2022-08-06T03:12:27;94258.31;;;18.15;73.26
39301;BME280;25019;42.626;23.380;2022-08-06T03:14:54;94239.69;;;18.05;73.31
39301;BME280;25019;42.626;23.380;2022-08-06T03:17:22;94253.94;;;18.19;73.47
39301;BME280;25019;42.626;23.380;2022-08-06T03:19:49;94261.09;;;18.24;73.51
39301;BME280;25019;42.626;23.380;2022-08-06T03:22:16;94251.25;;;18.19;73.09
39301;BME280;25019;42.626;23.380;2022-08-06T03:24:44;94175.78;;;17.60;73.35
39301;BME280;25019;42.626;23.380;2022-08-06T03:27:11;94270.56;;;18.21;73.72
39301;BME280;25019;42.626;23.380;2022-08-06T03:29:41;94227.13;;;17.86;73.99
39301;BME280;25019;42.626;23.380;2022-08-06T03:32:08;94265.38;;;18.11;74.24
39301;BME280;25019;42.626;23.380;2022-08-06T03:34:34;94265.97;;;18.08;74.42
39301;BME280;25019;42.626;23.380;2022-08-06T03:37:02;94264.78;;;18.00;75.07
39301;BME280;25019;42.626;23.380;2022-08-06T03:39:30;94275.41;;;17.91;75.89
39301;BME280;25019;42.626;23.380;2022-08-06T03:41:57;94267.63;;;17.90;76.21
39301;BME280;25019;42.626;23.380;2022-08-06T03:44:23;94264.69;;;18.05;75.68
39301;BME280;25019;42.626;23.380;2022-08-06T03:49:19;94252.63;;;18.17;74.72
39301;BME280;25019;42.626;23.380;2022-08-06T03:51:49;94269.16;;;18.24;75.03
39301;BME280;25019;42.626;23.380;2022-08-06T03:54:25;94220.19;;;18.13;74.30
39301;BME280;25019;42.626;23.380;2022-08-06T03:56:52;94217.28;;;18.37;72.96
39301;BME280;25019;42.626;23.380;2022-08-06T03:59:20;94267.13;;;19.08;71.90
39301;BME280;25019;42.626;23.380;2022-08-06T04:01:48;94263.00;;;19.34;70.99
39301;BME280;25019;42.626;23.380;2022-08-06T04:04:15;94262.00;;;19.52;69.67
39301;BME280;25019;42.626;23.380;2022-08-06T04:06:42;94257.63;;;19.88;68.38
39301;BME280;25019;42.626;23.380;2022-08-06T04:09:09;94275.34;;;20.20;66.94
39301;BME280;25019;42.626;23.380;2022-08-06T04:11:36;94261.94;;;20.47;65.42
39301;BME280;25019;42.626;23.380;2022-08-06T04:14:03;94236.84;;;20.55;63.70
39301;BME280;25019;42.626;23.380;2022-08-06T04:16:30;94214.81;;;20.71;62.54
39301;BME280;25019;42.626;23.380;2022-08-06T04:18:57;94195.00;;;21.02;61.21
39301;BME280;25019;42.626;23.380;2022-08-06T04:21:24;94285.81;;;22.07;59.72
39301;BME280;25019;42.626;23.380;2022-08-06T04:23:51;94285.53;;;22.38;58.44
39301;BME280;25019;42.626;23.380;2022-08-06T04:26:20;94283.34;;;22.62;57.25
39301;BME280;25019;42.626;23.380;2022-08-06T04:28:52;94282.66;;;23.16;55.80
39301;BME280;25019;42.626;23.380;2022-08-06T04:31:19;94266.16;;;23.63;54.62
39301;BME280;25019;42.626;23.380;2022-08-06T04:33:45;94279.50;;;24.15;53.26
39301;BME280;25019;42.626;23.380;2022-08-06T04:36:12;94287.56;;;24.61;51.66
39301;BME280;25019;42.626;23.380;2022-08-06T04:38:39;94289.53;;;25.01;50.76
39301;BME280;25019;42.626;23.380;2022-08-06T04:41:05;94289.34;;;25.35;49.82
39301;BME280;25019;42.626;23.380;2022-08-06T04:43:31;94286.59;;;25.76;49.10
39301;BME280;25019;42.626;23.380;2022-08-06T04:45:57;94292.63;;;26.13;47.70
39301;BME280;25019;42.626;23.380;2022-08-06T04:48:24;94284.00;;;26.59;46.65
39301;BME280;25019;42.626;23.380;2022-08-06T04:50:49;94295.72;;;26.96;45.63
39301;BME280;25019;42.626;23.380;2022-08-06T04:53:17;94254.78;;;26.92;45.28
39301;BME280;25019;42.626;23.380;2022-08-06T04:55:45;94213.91;;;26.92;44.63
39301;BME280;25019;42.626;23.380;2022-08-06T04:58:12;94296.22;;;27.57;43.93
39301;BME280;25019;42.626;23.380;2022-08-06T05:00:49;94293.16;;;27.58;44.28
39301;BME280;25019;42.626;23.380;2022-08-06T05:03:15;94302.00;;;27.75;44.02
39301;BME280;25019;42.626;23.380;2022-08-06T05:08:27;94303.03;;;27.86;43.75
39301;BME280;25019;42.626;23.380;2022-08-06T05:11:02;94306.63;;;28.14;43.75
39301;BME280;25019;42.626;23.380;2022-08-06T05:13:33;94310.16;;;28.37;42.76
39301;BME280;25019;42.626;23.380;2022-08-06T05:16:03;94303.97;;;28.40;42.17
39301;BME280;25019;42.626;23.380;2022-08-06T05:18:36;94305.56;;;28.68;41.77
39301;BME280;25019;42.626;23.380;2022-08-06T05:21:03;94299.97;;;28.84;41.36
39301;BME280;25019;42.626;23.380;2022-08-06T05:23:35;94310.13;;;29.11;40.79
39301;BME280;25019;42.626;23.380;2022-08-06T05:26:02;94299.00;;;29.27;40.34
39301;BME280;25019;42.626;23.380;2022-08-06T05:28:27;94305.19;;;29.51;39.80
39301;BME280;25019;42.626;23.380;2022-08-06T05:30:54;94287.09;;;29.77;39.40
39301;BME280;25019;42.626;23.380;2022-08-06T05:33:29;94294.22;;;30.23;38.61
39301;BME280;25019;42.626;23.380;2022-08-06T05:36:00;94289.66;;;30.38;37.29
39301;BME280;25019;42.626;23.380;2022-08-06T05:38:27;94258.06;;;30.55;37.20
39301;BME280;25019;42.626;23.380;2022-08-06T05:40:53;94297.19;;;31.00;36.46
39301;BME280;25019;42.626;23.380;2022-08-06T05:43:19;94299.50;;;30.98;36.68
39301;BME280;25019;42.626;23.380;2022-08-06T05:45:46;94203.78;;;30.68;36.38
39301;BME280;25019;42.626;23.380;2022-08-06T05:48:13;94303.34;;;31.49;35.99
39301;BME280;25019;42.626;23.380;2022-08-06T05:50:46;94304.56;;;31.63;35.71
39301;BME280;25019;42.626;23.380;2022-08-06T05:53:19;94290.16;;;31.84;35.79
39301;BME280;25019;42.626;23.380;2022-08-06T05:55:57;94290.53;;;31.86;35.41
39301;BME280;25019;42.626;23.380;2022-08-06T05:59:01;94287.81;;;31.86;35.56
39301;BME280;25019;42.626;23.380;2022-08-06T06:01:28;94287.03;;;31.93;35.33
39301;BME280;25019;42.626;23.380;2022-08-06T06:03:55;94296.78;;;31.76;35.38
39301;BME280;25019;42.626;23.380;2022-08-06T06:06:22;94294.78;;;31.69;35.61
39301;BME280;25019;42.626;23.380;2022-08-06T06:08:49;94290.91;;;31.81;35.48
39301;BME280;25019;42.626;23.380;2022-08-06T06:11:16;94296.44;;;31.92;34.98
39301;BME280;25019;42.626;23.380;2022-08-06T06:13:42;94289.00;;;32.00;34.64
39301;BME280;25019;42.626;23.380;2022-08-06T06:16:28;94293.59;;;31.70;34.67
39301;BME280;25019;42.626;23.380;2022-08-06T06:19:02;94293.50;;;31.45;35.77
39301;BME280;25019;42.626;23.380;2022-08-06T06:24:37;94292.13;;;31.06;35.62
39301;BME280;25019;42.626;23.380;2022-08-06T06:27:20;94247.75;;;30.33;36.75
39301;BME280;25019;42.626;23.380;2022-08-06T06:32:49;94290.47;;;29.32;39.06
39301;BME280;25019;42.626;23.380;2022-08-06T06:35:29;94287.03;;;28.54;40.00
39301;BME280;25019;42.626;23.380;2022-08-06T06:40:57;94280.66;;;28.00;41.52
39301;BME280;25019;42.626;23.380;2022-08-06T06:45:55;94282.13;;;27.15;43.68
39301;BME280;25019;42.626;23.380;2022-08-06T06:48:27;94276.31;;;27.17;43.62
39301;BME280;25019;42.626;23.380;2022-08-06T06:51:01;94270.47;;;26.99;43.83
39301;BME280;25019;42.626;23.380;2022-08-06T06:53:30;94273.22;;;26.99;44.64
39301;BME280;25019;42.626;23.380;2022-08-06T06:55:58;94275.69;;;26.88;44.17
39301;BME280;25019;42.626;23.380;2022-08-06T06:58:37;94273.88;;;26.60;44.73
39301;BME280;25019;42.626;23.380;2022-08-06T07:01:10;94272.94;;;26.36;45.83
39301;BME280;25019;42.626;23.380;2022-08-06T07:03:38;94277.88;;;26.30;45.92
39301;BME280;25019;42.626;23.380;2022-08-06T07:06:06;94272.78;;;26.29;46.05
39301;BME280;25019;42.626;23.380;2022-08-06T07:08:37;94267.88;;;26.19;46.53
39301;BME280;25019;42.626;23.380;2022-08-06T07:11:06;94271.00;;;26.05;46.57
39301;BME280;25019;42.626;23.380;2022-08-06T07:13:33;94270.78;;;25.81;46.55
39301;BME280;25019;42.626;23.380;2022-08-06T07:16:01;94270.94;;;25.56;47.30
39301;BME280;25019;42.626;23.380;2022-08-06T07:18:27;94267.94;;;25.46;47.49
39301;BME280;25019;42.626;23.380;2022-08-06T07:20:55;94269.59;;;25.50;47.85
39301;BME280;25019;42.626;23.380;2022-08-06T07:23:21;94267.41;;;25.56;48.09
39301;BME280;25019;42.626;23.380;2022-08-06T07:25:48;94258.69;;;25.63;48.30
39301;BME280;25019;42.626;23.380;2022-08-06T07:28:16;94191.06;;;25.33;48.42
39301;BME280;25019;42.626;23.380;2022-08-06T07:30:42;94256.06;;;25.82;48.24
39301;BME280;25019;42.626;23.380;2022-08-06T07:33:10;94257.41;;;25.88;48.68
39301;BME280;25019;42.626;23.380;2022-08-06T07:35:41;94253.00;;;26.00;48.29
39301;BME280;25019;42.626;23.380;2022-08-06T07:38:09;94253.44;;;26.02;48.86
39301;BME280;25019;42.626;23.380;2022-08-06T07:40:43;94241.53;;;26.07;48.37
39301;BME280;25019;42.626;23.380;2022-08-06T07:43:12;94242.84;;;26.13;47.56
39301;BME280;25019;42.626;23.380;2022-08-06T07:45:38;94246.09;;;26.19;47.94
39301;BME280;25019;42.626;23.380;2022-08-06T07:48:07;94248.03;;;26.18;47.78
39301;BME280;25019;42.626;23.380;2022-08-06T07:50:35;94245.47;;;26.25;47.34
39301;BME280;25019;42.626;23.380;2022-08-06T07:53:01;94249.31;;;26.08;47.79
39301;BME280;25019;42.626;23.380;2022-08-06T07:55:28;94217.88;;;25.95;48.06
39301;BME280;25019;42.626;23.380;2022-08-06T07:57:55;94253.53;;;26.22;48.45
39301;BME280;25019;42.626;23.380;2022-08-06T08:00:22;94199.13;;;25.90;47.82
39301;BME280;25019;42.626;23.380;2022-08-06T08:02:50;94185.78;;;26.00;48.23
39301;BME280;25019;42.626;23.380;2022-08-06T08:05:36;94244.41;;;26.46;47.68
39301;BME280;25019;42.626;23.380;2022-08-06T08:08:22;94243.31;;;26.51;47.09
39301;BME280;25019;42.626;23.380;2022-08-06T08:10:48;94244.31;;;26.58;46.96
39301;BME280;25019;42.626;23.380;2022-08-06T08:13:15;94246.72;;;26.63;46.33
39301;BME280;25019;42.626;23.380;2022-08-06T08:15:45;94180.16;;;26.25;46.63
39301;BME280;25019;42.626;23.380;2022-08-06T08:18:11;94235.50;;;26.65;45.95
39301;BME280;25019;42.626;23.380;2022-08-06T08:20:38;94179.25;;;26.37;45.63
39301;BME280;25019;42.626;23.380;2022-08-06T08:23:06;94248.41;;;26.84;45.50
39301;BME280;25019;42.626;23.380;2022-08-06T08:25:33;94232.97;;;26.92;44.90
39301;BME280;25019;42.626;23.380;2022-08-06T08:27:59;94246.41;;;27.01;44.58
39301;BME280;25019;42.626;23.380;2022-08-06T08:30:25;94233.78;;;27.12;43.55
39301;BME280;25019;42.626;23.380;2022-08-06T08:32:50;94240.72;;;27.10;42.63
39301;BME280;25019;42.626;23.380;2022-08-06T08:35:16;94160.72;;;26.62;43.51
39301;BME280;25019;42.626;23.380;2022-08-06T08:37:41;94232.97;;;27.12;43.77
39301;BME280;25019;42.626;23.380;2022-08-06T08:40:08;94140.97;;;26.66;42.27
39301;BME280;25019;42.626;23.380;2022-08-06T08:42:39;94145.84;;;26.76;40.72
39301;BME280;25019;42.626;23.380;2022-08-06T08:45:06;94237.75;;;27.54;40.78
39301;BME280;25019;42.626;23.380;2022-08-06T08:47:33;94232.41;;;27.61;41.72
39301;BME280;25019;42.626;23.380;2022-08-06T08:50:01;94232.25;;;27.74;41.30
39301;BME280;25019;42.626;23.380;2022-08-06T08:52:33;94235.88;;;27.81;42.81
39301;BME280;25019;42.626;23.380;2022-08-06T08:55:04;94238.56;;;27.78;42.22
39301;BME280;25019;42.626;23.380;2022-08-06T08:57:31;94227.06;;;27.69;42.22
39301;BME280;25019;42.626;23.380;2022-08-06T09:00:00;94186.91;;;27.46;41.37
39301;BME280;25019;42.626;23.380;2022-08-06T09:02:26;94238.00;;;27.92;40.97
39301;BME280;25019;42.626;23.380;2022-08-06T09:04:53;94233.50;;;28.03;40.13
39301;BME280;25019;42.626;23.380;2022-08-06T09:07:19;94231.78;;;28.15;40.40
39301;BME280;25019;42.626;23.380;2022-08-06T09:09:45;94224.91;;;28.24;40.46
39301;BME280;25019;42.626;23.380;2022-08-06T09:12:11;94223.06;;;28.32;39.57
39301;BME280;25019;42.626;23.380;2022-08-06T09:14:37;94221.19;;;28.36;39.07
39301;BME280;25019;42.626;23.380;2022-08-06T09:17:04;94220.56;;;28.47;38.57
39301;BME280;25019;42.626;23.380;2022-08-06T09:19:30;94142.00;;;28.09;39.03
39301;BME280;25019;42.626;23.380;2022-08-06T09:21:57;94220.31;;;28.55;38.25
39301;BME280;25019;42.626;23.380;2022-08-06T09:24:23;94219.53;;;28.55;38.85
39301;BME280;25019;42.626;23.380;2022-08-06T09:27:21;94221.03;;;28.52;39.06
39301;BME280;25019;42.626;23.380;2022-08-06T09:29:57;94212.53;;;28.58;38.90
39301;BME280;25019;42.626;23.380;2022-08-06T09:32:36;94213.16;;;28.47;37.58
39301;BME280;25019;42.626;23.380;2022-08-06T09:35:14;94213.59;;;28.49;38.32
39301;BME280;25019;42.626;23.380;2022-08-06T09:37:40;94133.28;;;28.00;37.61
39301;BME280;25019;42.626;23.380;2022-08-06T09:40:13;94220.41;;;28.63;38.06
39301;BME280;25019;42.626;23.380;2022-08-06T09:42:42;94219.75;;;28.73;37.02
39301;BME280;25019;42.626;23.380;2022-08-06T09:45:10;94217.84;;;28.74;37.40
39301;BME280;25019;42.626;23.380;2022-08-06T09:47:36;94208.13;;;28.76;37.18
39301;BME280;25019;42.626;23.380;2022-08-06T09:50:06;94187.97;;;28.58;37.06
39301;BME280;25019;42.626;23.380;2022-08-06T09:52:32;94199.72;;;28.89;35.94
39301;BME280;25019;42.626;23.380;2022-08-06T09:54:57;94193.25;;;29.04;36.42
39301;BME280;25019;42.626;23.380;2022-08-06T09:57:24;94203.84;;;29.06;36.09
39301;BME280;25019;42.626;23.380;2022-08-06T09:59:50;94176.28;;;28.88;35.65
39301;BME280;25019;42.626;23.380;2022-08-06T10:02:18;94208.31;;;29.21;35.36
39301;BME280;25019;42.626;23.380;2022-08-06T10:04:44;94183.06;;;29.01;35.28
39301;BME280;25019;42.626;23.380;2022-08-06T10:07:11;94144.94;;;28.78;35.51
39301;BME280;25019;42.626;23.380;2022-08-06T10:09:50;94192.88;;;29.36;35.23
39301;BME280;25019;42.626;23.380;2022-08-06T10:12:18;94181.56;;;29.38;35.17
39301;BME280;25019;42.626;23.380;2022-08-06T10:14:44;94177.72;;;29.46;34.49
39301;BME280;25019;42.626;23.380;2022-08-06T10:17:13;94183.44;;;29.68;35.00
39301;BME280;25019;42.626;23.380;2022-08-06T10:19:42;94187.09;;;29.45;34.70
39301;BME280;25019;42.626;23.380;2022-08-06T10:22:11;94182.66;;;29.33;35.45
39301;BME280;25019;42.626;23.380;2022-08-06T10:24:42;94182.78;;;29.44;35.00
39301;BME280;25019;42.626;23.380;2022-08-06T10:27:13;94153.09;;;29.42;34.07
39301;BME280;25019;42.626;23.380;2022-08-06T10:29:41;94114.50;;;29.13;34.43
39301;BME280;25019;42.626;23.380;2022-08-06T10:32:10;94173.44;;;29.45;35.04
39301;BME280;25019;42.626;23.380;2022-08-06T10:34:39;94174.31;;;29.56;34.54
39301;BME280;25019;42.626;23.380;2022-08-06T10:37:07;94180.13;;;29.51;34.78
39301;BME280;25019;42.626;23.380;2022-08-06T10:39:36;94175.19;;;29.30;34.15
39301;BME280;25019;42.626;23.380;2022-08-06T10:42:05;94128.34;;;28.94;34.06
39301;BME280;25019;42.626;23.380;2022-08-06T10:44:32;94170.28;;;29.43;33.82
39301;BME280;25019;42.626;23.380;2022-08-06T10:46:59;94165.84;;;29.69;33.54
39301;BME280;25019;42.626;23.380;2022-08-06T10:49:25;94168.72;;;29.83;32.70
39301;BME280;25019;42.626;23.380;2022-08-06T10:51:52;94160.34;;;30.10;32.80
39301;BME280;25019;42.626;23.380;2022-08-06T10:54:18;94141.16;;;30.07;32.96
39301;BME280;25019;42.626;23.380;2022-08-06T10:56:48;94155.16;;;29.98;33.21
39301;BME280;25019;42.626;23.380;2022-08-06T10:59:14;94142.47;;;30.27;32.93
39301;BME280;25019;42.626;23.380;2022-08-06T11:05:29;94147.06;;;30.75;33.09
39301;BME280;25019;42.626;23.380;2022-08-06T11:08:42;94145.50;;;30.74;32.89
39301;BME280;25019;42.626;23.380;2022-08-06T11:11:03;94152.88;;;30.59;32.44
39301;BME280;25019;42.626;23.380;2022-08-06T11:16:25;94154.81;;;30.59;31.79
39301;BME280;25019;42.626;23.380;2022-08-06T11:19:17;94145.75;;;30.51;32.46
39301;BME280;25019;42.626;23.380;2022-08-06T11:21:45;94140.25;;;30.51;32.51
39301;BME280;25019;42.626;23.380;2022-08-06T11:24:12;94145.47;;;30.63;32.57
39301;BME280;25019;42.626;23.380;2022-08-06T11:26:40;94074.31;;;30.15;32.70
39301;BME280;25019;42.626;23.380;2022-08-06T11:29:08;94066.16;;;30.22;32.30
39301;BME280;25019;42.626;23.380;2022-08-06T11:31:40;94088.94;;;30.41;31.92
39301;BME280;25019;42.626;23.380;2022-08-06T11:34:09;94138.53;;;30.95;31.41
39301;BME280;25019;42.626;23.380;2022-08-06T11:36:44;94149.63;;;31.24;30.87
39301;BME280;25019;42.626;23.380;2022-08-06T11:39:10;94147.28;;;31.22;31.62
39301;BME280;25019;42.626;23.380;2022-08-06T11:42:02;94079.69;;;30.71;31.27
39301;BME280;25019;42.626;23.380;2022-08-06T11:44:32;94132.78;;;31.18;30.78
39301;BME280;25019;42.626;23.380;2022-08-06T11:47:11;94138.94;;;30.97;31.76
39301;BME280;25019;42.626;23.380;2022-08-06T11:52:04;94083.38;;;29.70;31.99
39301;BME280;25019;42.626;23.380;2022-08-06T12:02:12;94144.88;;;30.36;32.56
39301;BME280;25019;42.626;23.380;2022-08-06T12:04:38;94143.72;;;30.41;32.33
39301;BME280;25019;42.626;23.380;2022-08-06T12:14:56;94132.94;;;30.66;32.54
39301;BME280;25019;42.626;23.380;2022-08-06T12:17:23;94134.94;;;30.76;31.75
39301;BME280;25019;42.626;23.380;2022-08-06T12:19:54;94131.41;;;30.76;31.96
39301;BME280;25019;42.626;23.380;2022-08-06T12:22:22;94113.25;;;30.49;32.00
39301;BME280;25019;42.626;23.380;2022-08-06T12:24:50;94141.16;;;30.62;32.14
39301;BME280;25019;42.626;23.380;2022-08-06T12:27:16;94114.03;;;30.54;32.13
39301;BME280;25019;42.626;23.380;2022-08-06T12:29:43;94131.03;;;30.81;32.01
39301;BME280;25019;42.626;23.380;2022-08-06T12:32:26;94118.41;;;30.62;32.23
39301;BME280;25019;42.626;23.380;2022-08-06T12:34:54;94035.63;;;30.16;32.10
39301;BME280;25019;42.626;23.380;2022-08-06T12:37:20;94119.31;;;30.88;32.09
39301;BME280;25019;42.626;23.380;2022-08-06T12:39:46;94108.72;;;30.83;31.83
39301;BME280;25019;42.626;23.380;2022-08-06T12:42:31;94113.91;;;31.13;31.56
39301;BME280;25019;42.626;23.380;2022-08-06T12:44:57;94021.41;;;30.77;31.28
39301;BME280;25019;42.626;23.380;2022-08-06T12:47:24;94022.22;;;31.00;30.56
39301;BME280;25019;42.626;23.380;2022-08-06T12:49:54;94068.03;;;30.96;31.04
39301;BME280;25019;42.626;23.380;2022-08-06T12:52:20;94112.28;;;30.98;31.34
39301;BME280;25019;42.626;23.380;2022-08-06T12:54:47;94100.09;;;30.77;31.60
39301;BME280;25019;42.626;23.380;2022-08-06T12:57:24;94106.69;;;30.69;31.55
39301;BME280;25019;42.626;23.380;2022-08-06T12:59:52;94109.78;;;30.56;31.85
39301;BME280;25019;42.626;23.380;2022-08-06T13:02:19;94107.06;;;30.56;32.08
39301;BME280;25019;42.626;23.380;2022-08-06T13:04:48;94071.81;;;29.92;32.34
39301;BME280;25019;42.626;23.380;2022-08-06T13:07:15;94106.75;;;30.06;32.16
39301;BME280;25019;42.626;23.380;2022-08-06T13:09:43;94111.81;;;30.07;32.48
39301;BME280;25019;42.626;23.380;2022-08-06T13:12:17;94115.38;;;30.15;32.84
39301;BME280;25019;42.626;23.380;2022-08-06T13:17:15;94044.31;;;29.73;33.05
39301;BME280;25019;42.626;23.380;2022-08-06T13:19:54;94104.16;;;30.31;33.35
39301;BME280;25019;42.626;23.380;2022-08-06T13:22:21;94093.28;;;30.45;32.79
39301;BME280;25019;42.626;23.380;2022-08-06T13:24:48;94039.63;;;30.37;32.38
39301;BME280;25019;42.626;23.380;2022-08-06T13:27:14;94046.03;;;30.67;31.33
39301;BME280;25019;42.626;23.380;2022-08-06T13:30:09;94089.28;;;31.28;30.86
39301;BME280;25019;42.626;23.380;2022-08-06T13:32:35;94081.88;;;31.39;30.08
39301;BME280;25019;42.626;23.380;2022-08-06T13:35:08;94093.25;;;31.59;28.78
39301;BME280;25019;42.626;23.380;2022-08-06T13:37:44;94079.91;;;31.43;28.79
39301;BME280;25019;42.626;23.380;2022-08-06T13:40:12;94030.53;;;31.32;28.51
39301;BME280;25019;42.626;23.380;2022-08-06T13:43:07;94083.88;;;31.89;28.42
39301;BME280;25019;42.626;23.380;2022-08-06T13:45:33;94008.59;;;31.32;28.56
39301;BME280;25019;42.626;23.380;2022-08-06T13:48:09;94069.31;;;31.60;27.89
39301;BME280;25019;42.626;23.380;2022-08-06T13:50:36;94075.97;;;31.22;29.15
39301;BME280;25019;42.626;23.380;2022-08-06T13:53:03;94059.91;;;31.21;29.45